sensor_id;sensor_type;location;lat;lon;timestamp;temperature;humidity
13707;DHT22;6925;47.816;13.072;2022-09-21T00:01:20;10.70;84.50
13707;DHT22;6925;47.816;13.072;2022-09-21T00:03:51;10.80;84.60
13707;DHT22;6925;47.816;13.072;2022-09-21T00:06:22;10.80;84.70
13707;DHT22;6925;47.816;13.072;2022-09-21T00:08:50;10.90;84.60
13707;DHT22;6925;47.816;13.072;2022-09-21T00:11:20;10.90;84.50
13707;DHT22;6925;47.816;13.072;2022-09-21T00:13:51;10.80;82.70
13707;DHT22;6925;47.816;13.072;2022-09-21T00:16:20;10.80;83.30
13707;DHT22;6925;47.816;13.072;2022-09-21T00:18:47;10.80;83.70
13707;DHT22;6925;47.816;13.072;2022-09-21T00:21:15;10.80;82.90
13707;DHT22;6925;47.816;13.072;2022-09-21T00:23:45;10.80;82.90
13707;DHT22;6925;47.816;13.072;2022-09-21T00:26:15;10.80;83.10
13707;DHT22;6925;47.816;13.072;2022-09-21T00:28:42;10.80;83.10
13707;DHT22;6925;47.816;13.072;2022-09-21T00:31:12;10.80;83.10
13707;DHT22;6925;47.816;13.072;2022-09-21T00:33:40;10.80;83.40
13707;DHT22;6925;47.816;13.072;2022-09-21T00:36:10;10.80;83.60
13707;DHT22;6925;47.816;13.072;2022-09-21T00:38:38;10.80;83.50
13707;DHT22;6925;47.816;13.072;2022-09-21T00:41:08;10.80;83.30
13707;DHT22;6925;47.816;13.072;2022-09-21T00:43:39;10.80;83.20
13707;DHT22;6925;47.816;13.072;2022-09-21T00:46:11;10.70;83.80
13707;DHT22;6925;47.816;13.072;2022-09-21T00:48:40;10.80;83.90
13707;DHT22;6925;47.816;13.072;2022-09-21T00:51:08;10.80;83.60
13707;DHT22;6925;47.816;13.072;2022-09-21T00:53:37;10.80;82.70
13707;DHT22;6925;47.816;13.072;2022-09-21T00:56:07;10.80;82.90
13707;DHT22;6925;47.816;13.072;2022-09-21T00:58:37;10.80;83.10
13707;DHT22;6925;47.816;13.072;2022-09-21T01:01:06;10.80;82.30
13707;DHT22;6925;47.816;13.072;2022-09-21T01:03:34;10.90;83.00
13707;DHT22;6925;47.816;13.072;2022-09-21T01:06:01;10.90;83.00
13707;DHT22;6925;47.816;13.072;2022-09-21T01:08:29;10.90;82.10
13707;DHT22;6925;47.816;13.072;2022-09-21T01:11:19;10.90;81.60
13707;DHT22;6925;47.816;13.072;2022-09-21T01:14:02;10.70;81.60
13707;DHT22;6925;47.816;13.072;2022-09-21T01:16:34;10.70;82.30
13707;DHT22;6925;47.816;13.072;2022-09-21T01:19:17;10.70;83.00
13707;DHT22;6925;47.816;13.072;2022-09-21T01:21:55;10.70;82.20
13707;DHT22;6925;47.816;13.072;2022-09-21T01:24:51;10.70;82.50
13707;DHT22;6925;47.816;13.072;2022-09-21T01:27:44;10.70;82.60
13707;DHT22;6925;47.816;13.072;2022-09-21T01:30:18;10.70;82.80
13707;DHT22;6925;47.816;13.072;2022-09-21T01:32:49;10.60;82.80
13707;DHT22;6925;47.816;13.072;2022-09-21T01:35:21;10.60;83.60
13707;DHT22;6925;47.816;13.072;2022-09-21T01:37:53;10.70;84.30
13707;DHT22;6925;47.816;13.072;2022-09-21T01:40:24;10.80;84.30
13707;DHT22;6925;47.816;13.072;2022-09-21T01:42:53;10.90;84.10
13707;DHT22;6925;47.816;13.072;2022-09-21T01:45:27;10.90;83.60
13707;DHT22;6925;47.816;13.072;2022-09-21T01:47:59;11.00;83.20
13707;DHT22;6925;47.816;13.072;2022-09-21T01:50:30;10.90;82.70
13707;DHT22;6925;47.816;13.072;2022-09-21T01:53:02;10.90;82.60
13707;DHT22;6925;47.816;13.072;2022-09-21T01:55:36;10.80;83.10
13707;DHT22;6925;47.816;13.072;2022-09-21T01:58:10;10.80;82.70
13707;DHT22;6925;47.816;13.072;2022-09-21T02:00:45;10.80;83.30
13707;DHT22;6925;47.816;13.072;2022-09-21T02:03:17;10.70;82.40
13707;DHT22;6925;47.816;13.072;2022-09-21T02:05:46;10.60;83.10
13707;DHT22;6925;47.816;13.072;2022-09-21T02:08:14;10.70;83.30
13707;DHT22;6925;47.816;13.072;2022-09-21T02:10:44;10.60;83.50
13707;DHT22;6925;47.816;13.072;2022-09-21T02:13:14;10.60;83.60
13707;DHT22;6925;47.816;13.072;2022-09-21T02:16:09;10.60;83.80
13707;DHT22;6925;47.816;13.072;2022-09-21T02:18:48;10.70;84.10
13707;DHT22;6925;47.816;13.072;2022-09-21T02:21:27;10.70;83.90
13707;DHT22;6925;47.816;13.072;2022-09-21T02:24:01;10.70;84.10
13707;DHT22;6925;47.816;13.072;2022-09-21T02:26:34;10.70;84.60
13707;DHT22;6925;47.816;13.072;2022-09-21T02:29:09;10.80;84.50
13707;DHT22;6925;47.816;13.072;2022-09-21T02:31:47;10.80;84.40
13707;DHT22;6925;47.816;13.072;2022-09-21T02:34:20;10.90;84.20
13707;DHT22;6925;47.816;13.072;2022-09-21T02:36:53;10.90;83.60
13707;DHT22;6925;47.816;13.072;2022-09-21T02:39:27;10.80;83.80
13707;DHT22;6925;47.816;13.072;2022-09-21T02:42:01;10.80;83.80
13707;DHT22;6925;47.816;13.072;2022-09-21T02:44:33;10.80;84.00
13707;DHT22;6925;47.816;13.072;2022-09-21T02:47:09;10.90;84.10
13707;DHT22;6925;47.816;13.072;2022-09-21T02:49:41;10.90;83.50
13707;DHT22;6925;47.816;13.072;2022-09-21T02:52:13;10.90;83.70
13707;DHT22;6925;47.816;13.072;2022-09-21T02:54:44;10.90;83.50
13707;DHT22;6925;47.816;13.072;2022-09-21T02:57:14;10.70;83.40
13707;DHT22;6925;47.816;13.072;2022-09-21T02:59:44;10.70;84.10
13707;DHT22;6925;47.816;13.072;2022-09-21T03:02:13;10.70;84.30
13707;DHT22;6925;47.816;13.072;2022-09-21T03:04:41;10.70;84.40
13707;DHT22;6925;47.816;13.072;2022-09-21T03:07:12;10.70;84.20
13707;DHT22;6925;47.816;13.072;2022-09-21T03:09:40;10.60;84.50
13707;DHT22;6925;47.816;13.072;2022-09-21T03:12:07;10.70;84.90
13707;DHT22;6925;47.816;13.072;2022-09-21T03:14:35;10.60;84.40
13707;DHT22;6925;47.816;13.072;2022-09-21T03:17:02;10.60;84.40
13707;DHT22;6925;47.816;13.072;2022-09-21T03:19:31;10.50;84.60
13707;DHT22;6925;47.816;13.072;2022-09-21T03:21:58;10.50;84.90
13707;DHT22;6925;47.816;13.072;2022-09-21T03:24:26;10.50;85.00
13707;DHT22;6925;47.816;13.072;2022-09-21T03:27:11;10.50;85.10
13707;DHT22;6925;47.816;13.072;2022-09-21T03:29:38;10.50;85.30
13707;DHT22;6925;47.816;13.072;2022-09-21T03:32:06;10.50;85.60
13707;DHT22;6925;47.816;13.072;2022-09-21T03:34:35;10.60;85.50
13707;DHT22;6925;47.816;13.072;2022-09-21T03:37:04;10.60;85.00
13707;DHT22;6925;47.816;13.072;2022-09-21T03:39:31;10.60;85.10
13707;DHT22;6925;47.816;13.072;2022-09-21T03:41:58;10.60;84.80
13707;DHT22;6925;47.816;13.072;2022-09-21T03:44:27;10.50;85.20
13707;DHT22;6925;47.816;13.072;2022-09-21T03:46:54;10.40;85.30
13707;DHT22;6925;47.816;13.072;2022-09-21T03:49:22;10.40;85.50
13707;DHT22;6925;47.816;13.072;2022-09-21T03:51:51;10.40;85.80
13707;DHT22;6925;47.816;13.072;2022-09-21T03:54:19;10.40;86.30
13707;DHT22;6925;47.816;13.072;2022-09-21T03:56:46;10.50;85.70
13707;DHT22;6925;47.816;13.072;2022-09-21T03:59:14;10.50;85.60
13707;DHT22;6925;47.816;13.072;2022-09-21T04:01:42;10.60;85.90
13707;DHT22;6925;47.816;13.072;2022-09-21T04:04:09;10.60;85.50
13707;DHT22;6925;47.816;13.072;2022-09-21T04:06:36;10.60;84.60
13707;DHT22;6925;47.816;13.072;2022-09-21T04:09:08;10.60;85.00
13707;DHT22;6925;47.816;13.072;2022-09-21T04:11:36;10.70;85.20
13707;DHT22;6925;47.816;13.072;2022-09-21T04:14:10;10.70;85.40
13707;DHT22;6925;47.816;13.072;2022-09-21T04:16:48;10.80;85.50
13707;DHT22;6925;47.816;13.072;2022-09-21T04:19:17;10.90;85.20
13707;DHT22;6925;47.816;13.072;2022-09-21T04:21:44;10.90;84.60
13707;DHT22;6925;47.816;13.072;2022-09-21T04:24:13;10.80;84.40
13707;DHT22;6925;47.816;13.072;2022-09-21T04:26:41;10.70;84.60
13707;DHT22;6925;47.816;13.072;2022-09-21T04:29:08;10.70;84.80
13707;DHT22;6925;47.816;13.072;2022-09-21T04:31:36;10.60;85.00
13707;DHT22;6925;47.816;13.072;2022-09-21T04:34:03;10.60;85.00
13707;DHT22;6925;47.816;13.072;2022-09-21T04:36:30;10.60;85.50
13707;DHT22;6925;47.816;13.072;2022-09-21T04:38:59;10.60;85.50
13707;DHT22;6925;47.816;13.072;2022-09-21T04:41:28;10.50;85.20
13707;DHT22;6925;47.816;13.072;2022-09-21T04:43:55;10.50;85.50
13707;DHT22;6925;47.816;13.072;2022-09-21T04:46:23;10.60;86.30
13707;DHT22;6925;47.816;13.072;2022-09-21T04:48:50;10.70;86.20
13707;DHT22;6925;47.816;13.072;2022-09-21T04:51:18;10.70;86.00
13707;DHT22;6925;47.816;13.072;2022-09-21T04:53:45;10.80;85.50
13707;DHT22;6925;47.816;13.072;2022-09-21T04:56:15;10.80;85.10
13707;DHT22;6925;47.816;13.072;2022-09-21T04:58:44;10.80;84.90
13707;DHT22;6925;47.816;13.072;2022-09-21T05:01:12;10.80;84.80
13707;DHT22;6925;47.816;13.072;2022-09-21T05:03:40;10.80;84.40
13707;DHT22;6925;47.816;13.072;2022-09-21T05:06:07;10.70;84.50
13707;DHT22;6925;47.816;13.072;2022-09-21T05:08:38;10.80;84.90
13707;DHT22;6925;47.816;13.072;2022-09-21T05:11:26;10.80;84.60
13707;DHT22;6925;47.816;13.072;2022-09-21T05:13:56;10.80;84.80
13707;DHT22;6925;47.816;13.072;2022-09-21T05:16:26;10.80;84.80
13707;DHT22;6925;47.816;13.072;2022-09-21T05:18:54;10.90;84.90
13707;DHT22;6925;47.816;13.072;2022-09-21T05:21:21;10.90;84.90
13707;DHT22;6925;47.816;13.072;2022-09-21T05:23:49;10.80;84.20
13707;DHT22;6925;47.816;13.072;2022-09-21T05:26:16;10.80;84.20
13707;DHT22;6925;47.816;13.072;2022-09-21T05:28:44;10.70;84.30
13707;DHT22;6925;47.816;13.072;2022-09-21T05:31:26;10.70;84.40
13707;DHT22;6925;47.816;13.072;2022-09-21T05:34:02;10.70;84.60
13707;DHT22;6925;47.816;13.072;2022-09-21T05:36:40;10.70;84.90
13707;DHT22;6925;47.816;13.072;2022-09-21T05:39:08;10.70;85.00
13707;DHT22;6925;47.816;13.072;2022-09-21T05:41:36;10.70;84.70
13707;DHT22;6925;47.816;13.072;2022-09-21T05:44:05;10.70;85.10
13707;DHT22;6925;47.816;13.072;2022-09-21T05:46:37;10.70;85.20
13707;DHT22;6925;47.816;13.072;2022-09-21T05:49:13;10.60;85.30
13707;DHT22;6925;47.816;13.072;2022-09-21T05:51:55;10.60;85.20
13707;DHT22;6925;47.816;13.072;2022-09-21T05:54:33;10.60;86.00
13707;DHT22;6925;47.816;13.072;2022-09-21T05:57:09;10.60;86.10
13707;DHT22;6925;47.816;13.072;2022-09-21T05:59:48;10.70;85.30
13707;DHT22;6925;47.816;13.072;2022-09-21T06:02:25;10.70;85.30
13707;DHT22;6925;47.816;13.072;2022-09-21T06:04:57;10.80;84.80
13707;DHT22;6925;47.816;13.072;2022-09-21T06:07:26;10.80;84.50
13707;DHT22;6925;47.816;13.072;2022-09-21T06:09:53;10.80;84.70
13707;DHT22;6925;47.816;13.072;2022-09-21T06:12:20;10.80;84.30
13707;DHT22;6925;47.816;13.072;2022-09-21T06:14:48;10.80;84.60
13707;DHT22;6925;47.816;13.072;2022-09-21T06:17:15;10.90;84.70
13707;DHT22;6925;47.816;13.072;2022-09-21T06:19:44;10.90;84.70
13707;DHT22;6925;47.816;13.072;2022-09-21T06:22:12;10.90;84.30
13707;DHT22;6925;47.816;13.072;2022-09-21T06:24:39;10.90;83.50
13707;DHT22;6925;47.816;13.072;2022-09-21T06:27:06;10.80;84.00
13707;DHT22;6925;47.816;13.072;2022-09-21T06:29:33;10.90;84.00
13707;DHT22;6925;47.816;13.072;2022-09-21T06:32:01;10.90;83.80
13707;DHT22;6925;47.816;13.072;2022-09-21T06:34:28;10.90;83.80
13707;DHT22;6925;47.816;13.072;2022-09-21T06:36:57;10.90;84.00
13707;DHT22;6925;47.816;13.072;2022-09-21T06:39:24;10.90;83.90
13707;DHT22;6925;47.816;13.072;2022-09-21T06:41:52;10.90;83.80
13707;DHT22;6925;47.816;13.072;2022-09-21T06:44:19;10.90;83.60
13707;DHT22;6925;47.816;13.072;2022-09-21T06:46:47;10.90;83.80
13707;DHT22;6925;47.816;13.072;2022-09-21T06:49:14;10.90;83.80
13707;DHT22;6925;47.816;13.072;2022-09-21T06:51:41;10.90;83.40
13707;DHT22;6925;47.816;13.072;2022-09-21T06:54:10;10.90;83.50
13707;DHT22;6925;47.816;13.072;2022-09-21T06:56:37;10.90;83.70
13707;DHT22;6925;47.816;13.072;2022-09-21T06:59:04;10.90;83.80
13707;DHT22;6925;47.816;13.072;2022-09-21T07:01:33;10.90;83.80
13707;DHT22;6925;47.816;13.072;2022-09-21T07:04:00;11.00;84.00
13707;DHT22;6925;47.816;13.072;2022-09-21T07:06:28;11.00;84.10
13707;DHT22;6925;47.816;13.072;2022-09-21T07:08:55;11.10;84.10
13707;DHT22;6925;47.816;13.072;2022-09-21T07:11:24;11.10;83.90
13707;DHT22;6925;47.816;13.072;2022-09-21T07:13:52;11.10;83.60
13707;DHT22;6925;47.816;13.072;2022-09-21T07:16:19;11.10;83.90
13707;DHT22;6925;47.816;13.072;2022-09-21T07:18:48;11.20;84.10
13707;DHT22;6925;47.816;13.072;2022-09-21T07:21:15;11.30;84.10
13707;DHT22;6925;47.816;13.072;2022-09-21T07:23:42;11.20;83.00
13707;DHT22;6925;47.816;13.072;2022-09-21T07:26:12;11.20;83.10
13707;DHT22;6925;47.816;13.072;2022-09-21T07:28:41;11.20;83.10
13707;DHT22;6925;47.816;13.072;2022-09-21T07:31:11;11.20;83.70
13707;DHT22;6925;47.816;13.072;2022-09-21T07:33:38;11.30;84.40
13707;DHT22;6925;47.816;13.072;2022-09-21T07:36:06;11.30;83.30
13707;DHT22;6925;47.816;13.072;2022-09-21T07:38:37;11.40;84.10
13707;DHT22;6925;47.816;13.072;2022-09-21T07:41:05;11.50;84.20
13707;DHT22;6925;47.816;13.072;2022-09-21T07:43:32;11.60;84.50
13707;DHT22;6925;47.816;13.072;2022-09-21T07:46:01;11.60;84.10
13707;DHT22;6925;47.816;13.072;2022-09-21T07:48:28;11.80;83.30
13707;DHT22;6925;47.816;13.072;2022-09-21T07:51:00;11.70;83.90
13707;DHT22;6925;47.816;13.072;2022-09-21T07:53:29;11.80;84.50
13707;DHT22;6925;47.816;13.072;2022-09-21T07:56:00;11.90;83.40
13707;DHT22;6925;47.816;13.072;2022-09-21T07:58:28;11.90;83.00
13707;DHT22;6925;47.816;13.072;2022-09-21T08:01:14;11.90;82.10
13707;DHT22;6925;47.816;13.072;2022-09-21T08:03:42;12.00;83.40
13707;DHT22;6925;47.816;13.072;2022-09-21T08:06:09;12.10;84.40
13707;DHT22;6925;47.816;13.072;2022-09-21T08:08:40;12.30;84.70
13707;DHT22;6925;47.816;13.072;2022-09-21T08:11:08;12.50;83.70
13707;DHT22;6925;47.816;13.072;2022-09-21T08:13:36;12.60;82.90
13707;DHT22;6925;47.816;13.072;2022-09-21T08:16:04;12.60;82.80
13707;DHT22;6925;47.816;13.072;2022-09-21T08:18:43;12.60;82.00
13707;DHT22;6925;47.816;13.072;2022-09-21T08:21:10;12.70;81.50
13707;DHT22;6925;47.816;13.072;2022-09-21T08:23:44;12.60;81.10
13707;DHT22;6925;47.816;13.072;2022-09-21T08:26:18;12.60;80.40
13707;DHT22;6925;47.816;13.072;2022-09-21T08:28:47;12.60;80.30
13707;DHT22;6925;47.816;13.072;2022-09-21T08:31:17;12.60;80.20
13707;DHT22;6925;47.816;13.072;2022-09-21T08:33:47;12.60;80.40
13707;DHT22;6925;47.816;13.072;2022-09-21T08:36:15;12.60;81.50
13707;DHT22;6925;47.816;13.072;2022-09-21T08:38:42;12.60;81.60
13707;DHT22;6925;47.816;13.072;2022-09-21T08:41:16;12.70;82.70
13707;DHT22;6925;47.816;13.072;2022-09-21T08:43:48;12.80;83.10
13707;DHT22;6925;47.816;13.072;2022-09-21T08:46:21;12.90;82.90
13707;DHT22;6925;47.816;13.072;2022-09-21T08:48:56;13.00;82.70
13707;DHT22;6925;47.816;13.072;2022-09-21T08:51:28;13.00;82.10
13707;DHT22;6925;47.816;13.072;2022-09-21T08:53:58;13.00;81.90
13707;DHT22;6925;47.816;13.072;2022-09-21T08:56:27;13.00;82.10
13707;DHT22;6925;47.816;13.072;2022-09-21T08:58:54;13.00;82.50
13707;DHT22;6925;47.816;13.072;2022-09-21T09:01:37;13.00;82.50
13707;DHT22;6925;47.816;13.072;2022-09-21T09:04:37;13.00;82.50
13707;DHT22;6925;47.816;13.072;2022-09-21T09:07:28;13.00;83.10
13707;DHT22;6925;47.816;13.072;2022-09-21T09:10:17;13.20;84.70
13707;DHT22;6925;47.816;13.072;2022-09-21T09:12:56;13.40;82.80
13707;DHT22;6925;47.816;13.072;2022-09-21T09:15:40;13.50;81.50
13707;DHT22;6925;47.816;13.072;2022-09-21T09:18:20;13.60;81.60
13707;DHT22;6925;47.816;13.072;2022-09-21T09:20:54;13.50;80.60
13707;DHT22;6925;47.816;13.072;2022-09-21T09:23:27;13.50;80.90
13707;DHT22;6925;47.816;13.072;2022-09-21T09:26:08;13.50;80.60
13707;DHT22;6925;47.816;13.072;2022-09-21T09:28:41;13.40;80.90
13707;DHT22;6925;47.816;13.072;2022-09-21T09:31:18;13.40;80.70
13707;DHT22;6925;47.816;13.072;2022-09-21T09:57:23;16.00;77.50
13707;DHT22;6925;47.816;13.072;2022-09-21T09:59:54;16.00;75.20
13707;DHT22;6925;47.816;13.072;2022-09-21T10:02:51;15.90;73.50
13707;DHT22;6925;47.816;13.072;2022-09-21T10:05:22;15.80;73.40
13707;DHT22;6925;47.816;13.072;2022-09-21T10:07:51;15.80;73.80
13707;DHT22;6925;47.816;13.072;2022-09-21T10:10:30;15.80;73.40
13707;DHT22;6925;47.816;13.072;2022-09-21T10:13:12;15.80;72.30
13707;DHT22;6925;47.816;13.072;2022-09-21T10:15:44;15.70;72.30
13707;DHT22;6925;47.816;13.072;2022-09-21T10:18:20;15.60;71.90
13707;DHT22;6925;47.816;13.072;2022-09-21T10:20:56;15.60;72.80
13707;DHT22;6925;47.816;13.072;2022-09-21T10:23:35;15.60;73.00
13707;DHT22;6925;47.816;13.072;2022-09-21T10:26:07;15.50;73.20
13707;DHT22;6925;47.816;13.072;2022-09-21T10:28:56;15.60;73.60
13707;DHT22;6925;47.816;13.072;2022-09-21T10:31:26;15.60;73.30
13707;DHT22;6925;47.816;13.072;2022-09-21T10:34:06;15.50;74.90
13707;DHT22;6925;47.816;13.072;2022-09-21T10:36:50;15.60;73.50
13707;DHT22;6925;47.816;13.072;2022-09-21T10:39:49;15.60;73.70
13707;DHT22;6925;47.816;13.072;2022-09-21T10:42:41;15.70;74.10
13707;DHT22;6925;47.816;13.072;2022-09-21T10:45:24;15.80;73.40
13707;DHT22;6925;47.816;13.072;2022-09-21T10:48:13;15.90;73.20
13707;DHT22;6925;47.816;13.072;2022-09-21T10:50:43;16.00;71.90
13707;DHT22;6925;47.816;13.072;2022-09-21T10:53:18;16.00;71.00
13707;DHT22;6925;47.816;13.072;2022-09-21T10:55:57;16.00;71.30
13707;DHT22;6925;47.816;13.072;2022-09-21T10:58:30;15.90;70.30
13707;DHT22;6925;47.816;13.072;2022-09-21T11:01:10;15.80;70.60
13707;DHT22;6925;47.816;13.072;2022-09-21T11:03:48;15.80;70.70
13707;DHT22;6925;47.816;13.072;2022-09-21T11:06:24;15.80;70.20
13707;DHT22;6925;47.816;13.072;2022-09-21T11:08:57;15.70;69.20
13707;DHT22;6925;47.816;13.072;2022-09-21T11:11:38;15.70;67.90
13707;DHT22;6925;47.816;13.072;2022-09-21T11:14:16;15.70;67.40
13707;DHT22;6925;47.816;13.072;2022-09-21T11:16:53;15.60;68.30
13707;DHT22;6925;47.816;13.072;2022-09-21T11:19:24;15.60;68.60
13707;DHT22;6925;47.816;13.072;2022-09-21T11:22:18;15.60;65.40
13707;DHT22;6925;47.816;13.072;2022-09-21T11:24:55;15.60;66.30
13707;DHT22;6925;47.816;13.072;2022-09-21T11:27:29;15.60;67.30
13707;DHT22;6925;47.816;13.072;2022-09-21T11:30:09;15.70;68.60
13707;DHT22;6925;47.816;13.072;2022-09-21T11:33:00;15.70;66.50
13707;DHT22;6925;47.816;13.072;2022-09-21T11:35:50;15.70;67.30
13707;DHT22;6925;47.816;13.072;2022-09-21T11:38:47;15.80;67.60
13707;DHT22;6925;47.816;13.072;2022-09-21T11:41:35;16.00;67.70
13707;DHT22;6925;47.816;13.072;2022-09-21T11:44:32;16.10;67.00
13707;DHT22;6925;47.816;13.072;2022-09-21T11:47:16;16.40;70.00
13707;DHT22;6925;47.816;13.072;2022-09-21T11:50:09;16.90;71.70
13707;DHT22;6925;47.816;13.072;2022-09-21T11:52:51;17.40;67.10
13707;DHT22;6925;47.816;13.072;2022-09-21T11:58:51;18.30;64.40
13707;DHT22;6925;47.816;13.072;2022-09-21T12:01:38;18.60;59.70
13707;DHT22;6925;47.816;13.072;2022-09-21T12:07:28;19.50;60.90
13707;DHT22;6925;47.816;13.072;2022-09-21T12:10:31;19.80;55.70
13707;DHT22;6925;47.816;13.072;2022-09-21T12:13:07;20.00;53.00
13707;DHT22;6925;47.816;13.072;2022-09-21T12:15:44;20.20;54.20
13707;DHT22;6925;47.816;13.072;2022-09-21T12:18:17;20.40;51.60
13707;DHT22;6925;47.816;13.072;2022-09-21T12:20:56;20.40;52.00
13707;DHT22;6925;47.816;13.072;2022-09-21T12:23:35;20.80;53.00
13707;DHT22;6925;47.816;13.072;2022-09-21T12:26:05;21.20;51.00
13707;DHT22;6925;47.816;13.072;2022-09-21T12:28:38;21.40;50.60
13707;DHT22;6925;47.816;13.072;2022-09-21T12:31:11;21.80;53.00
13707;DHT22;6925;47.816;13.072;2022-09-21T12:33:46;22.30;52.80
13707;DHT22;6925;47.816;13.072;2022-09-21T12:36:19;22.50;49.50
13707;DHT22;6925;47.816;13.072;2022-09-21T12:38:53;22.60;46.40
13707;DHT22;6925;47.816;13.072;2022-09-21T12:41:30;22.50;45.90
13707;DHT22;6925;47.816;13.072;2022-09-21T12:44:04;22.50;47.50
13707;DHT22;6925;47.816;13.072;2022-09-21T12:46:39;22.90;49.50
13707;DHT22;6925;47.816;13.072;2022-09-21T12:49:14;23.20;45.70
13707;DHT22;6925;47.816;13.072;2022-09-21T12:51:42;23.30;44.30
13707;DHT22;6925;47.816;13.072;2022-09-21T12:54:18;23.50;46.80
13707;DHT22;6925;47.816;13.072;2022-09-21T12:56:55;23.70;45.50
13707;DHT22;6925;47.816;13.072;2022-09-21T12:59:32;23.90;44.70
13707;DHT22;6925;47.816;13.072;2022-09-21T13:02:12;24.10;44.80
13707;DHT22;6925;47.816;13.072;2022-09-21T13:04:53;24.40;45.20
13707;DHT22;6925;47.816;13.072;2022-09-21T13:07:49;24.60;43.80
13707;DHT22;6925;47.816;13.072;2022-09-21T13:10:35;24.80;43.60
13707;DHT22;6925;47.816;13.072;2022-09-21T13:13:16;24.80;41.40
13707;DHT22;6925;47.816;13.072;2022-09-21T13:15:46;24.90;42.20
13707;DHT22;6925;47.816;13.072;2022-09-21T13:18:18;25.10;42.20
13707;DHT22;6925;47.816;13.072;2022-09-21T13:20:48;25.30;43.20
13707;DHT22;6925;47.816;13.072;2022-09-21T13:23:21;25.40;43.90
13707;DHT22;6925;47.816;13.072;2022-09-21T13:26:01;25.60;44.40
13707;DHT22;6925;47.816;13.072;2022-09-21T13:32:29;26.00;44.40
13707;DHT22;6925;47.816;13.072;2022-09-21T13:35:53;26.10;44.10
13707;DHT22;6925;47.816;13.072;2022-09-21T13:38:29;26.20;42.70
13707;DHT22;6925;47.816;13.072;2022-09-21T13:41:01;26.20;42.40
13707;DHT22;6925;47.816;13.072;2022-09-21T13:43:59;25.80;41.60
13707;DHT22;6925;47.816;13.072;2022-09-21T13:46:51;25.70;42.70
13707;DHT22;6925;47.816;13.072;2022-09-21T13:49:31;25.60;41.90
13707;DHT22;6925;47.816;13.072;2022-09-21T13:52:03;25.50;41.60
13707;DHT22;6925;47.816;13.072;2022-09-21T13:54:44;25.50;41.50
13707;DHT22;6925;47.816;13.072;2022-09-21T13:57:24;25.70;42.60
13707;DHT22;6925;47.816;13.072;2022-09-21T14:02:56;25.90;41.10
13707;DHT22;6925;47.816;13.072;2022-09-21T14:05:32;25.90;40.90
13707;DHT22;6925;47.816;13.072;2022-09-21T14:08:05;25.70;39.70
13707;DHT22;6925;47.816;13.072;2022-09-21T14:10:36;25.60;40.90
13707;DHT22;6925;47.816;13.072;2022-09-21T14:13:23;25.70;40.50
13707;DHT22;6925;47.816;13.072;2022-09-21T14:15:53;25.70;40.10
13707;DHT22;6925;47.816;13.072;2022-09-21T14:18:36;25.60;40.20
13707;DHT22;6925;47.816;13.072;2022-09-21T14:21:24;25.60;39.60
13707;DHT22;6925;47.816;13.072;2022-09-21T14:27:10;25.60;39.80
13707;DHT22;6925;47.816;13.072;2022-09-21T14:29:43;25.60;39.10
13707;DHT22;6925;47.816;13.072;2022-09-21T14:32:15;25.60;38.70
13707;DHT22;6925;47.816;13.072;2022-09-21T14:34:46;25.70;39.20
13707;DHT22;6925;47.816;13.072;2022-09-21T14:37:26;25.70;39.10
13707;DHT22;6925;47.816;13.072;2022-09-21T14:39:57;25.70;38.20
13707;DHT22;6925;47.816;13.072;2022-09-21T14:42:27;25.70;38.60
13707;DHT22;6925;47.816;13.072;2022-09-21T14:44:59;25.70;37.90
13707;DHT22;6925;47.816;13.072;2022-09-21T14:47:51;25.70;37.60
13707;DHT22;6925;47.816;13.072;2022-09-21T14:50:33;25.80;37.30
13707;DHT22;6925;47.816;13.072;2022-09-21T14:56:24;26.00;37.20
13707;DHT22;6925;47.816;13.072;2022-09-21T14:59:11;25.90;36.80
13707;DHT22;6925;47.816;13.072;2022-09-21T15:01:54;25.80;36.50
13707;DHT22;6925;47.816;13.072;2022-09-21T15:04:38;25.80;36.70
13707;DHT22;6925;47.816;13.072;2022-09-21T15:07:26;25.90;36.90
13707;DHT22;6925;47.816;13.072;2022-09-21T15:10:23;25.90;36.80
13707;DHT22;6925;47.816;13.072;2022-09-21T15:13:16;25.90;37.00
13707;DHT22;6925;47.816;13.072;2022-09-21T15:15:58;26.00;36.70
13707;DHT22;6925;47.816;13.072;2022-09-21T15:18:30;26.00;35.50
13707;DHT22;6925;47.816;13.072;2022-09-21T15:21:02;25.90;36.40
13707;DHT22;6925;47.816;13.072;2022-09-21T15:23:32;26.00;37.40
13707;DHT22;6925;47.816;13.072;2022-09-21T15:26:08;25.90;36.40
13707;DHT22;6925;47.816;13.072;2022-09-21T15:28:41;25.90;36.70
13707;DHT22;6925;47.816;13.072;2022-09-21T15:31:13;25.90;36.50
13707;DHT22;6925;47.816;13.072;2022-09-21T15:33:43;25.80;36.70
13707;DHT22;6925;47.816;13.072;2022-09-21T15:36:19;25.70;36.10
13707;DHT22;6925;47.816;13.072;2022-09-21T15:38:48;25.40;36.60
13707;DHT22;6925;47.816;13.072;2022-09-21T15:41:37;25.40;36.70
13707;DHT22;6925;47.816;13.072;2022-09-21T15:44:12;25.30;36.70
13707;DHT22;6925;47.816;13.072;2022-09-21T15:46:42;25.00;36.40
13707;DHT22;6925;47.816;13.072;2022-09-21T15:49:14;24.90;37.20
13707;DHT22;6925;47.816;13.072;2022-09-21T15:51:43;24.80;36.90
13707;DHT22;6925;47.816;13.072;2022-09-21T15:54:24;24.60;37.20
13707;DHT22;6925;47.816;13.072;2022-09-21T15:56:52;24.30;37.20
13707;DHT22;6925;47.816;13.072;2022-09-21T15:59:20;24.30;37.60
13707;DHT22;6925;47.816;13.072;2022-09-21T16:01:49;24.10;37.30
13707;DHT22;6925;47.816;13.072;2022-09-21T16:04:21;23.90;37.80
13707;DHT22;6925;47.816;13.072;2022-09-21T16:07:00;23.70;38.00
13707;DHT22;6925;47.816;13.072;2022-09-21T16:09:46;23.50;37.70
13707;DHT22;6925;47.816;13.072;2022-09-21T16:12:43;23.30;38.50
13707;DHT22;6925;47.816;13.072;2022-09-21T16:15:24;23.00;38.60
13707;DHT22;6925;47.816;13.072;2022-09-21T16:17:59;22.70;39.00
13707;DHT22;6925;47.816;13.072;2022-09-21T16:20:47;22.60;38.70
13707;DHT22;6925;47.816;13.072;2022-09-21T16:23:19;22.30;39.30
13707;DHT22;6925;47.816;13.072;2022-09-21T16:36:41;21.30;40.90
13707;DHT22;6925;47.816;13.072;2022-09-21T16:39:28;21.10;41.20
13707;DHT22;6925;47.816;13.072;2022-09-21T16:42:00;20.80;41.70
13707;DHT22;6925;47.816;13.072;2022-09-21T16:44:30;20.60;41.90
13707;DHT22;6925;47.816;13.072;2022-09-21T16:47:13;20.40;41.90
13707;DHT22;6925;47.816;13.072;2022-09-21T16:49:47;20.10;42.10
13707;DHT22;6925;47.816;13.072;2022-09-21T16:52:41;19.80;42.00
13707;DHT22;6925;47.816;13.072;2022-09-21T16:55:17;19.50;43.10
13707;DHT22;6925;47.816;13.072;2022-09-21T16:57:45;19.20;42.90
13707;DHT22;6925;47.816;13.072;2022-09-21T17:00:13;18.90;44.00
13707;DHT22;6925;47.816;13.072;2022-09-21T17:02:47;18.80;44.20
13707;DHT22;6925;47.816;13.072;2022-09-21T17:10:36;18.20;45.40
13707;DHT22;6925;47.816;13.072;2022-09-21T17:16:55;17.90;46.40